Airfield :
LOGIN :

Register | Disclaimer

   EN    FR    IT 

 










Legend :    VFR   Marginal VFR   IFR   Intensive IFR   Very Intensive IFR
Visi :
Ceiling :
>= 8 km
>= 3000ft
5 to 8 km
1000 to 3000 ft
1500m to 5 km
500 to 1000 ft
800 to 1500m
200 to 500 ft
< 800m
< 200 ft
Symbols :   Thunderstorms  Fog  Heavy snow  Heavy precipitations  Wind > 20 kt
SIGMETs :     Misc.  Thunderstorms  Icing  Turbulence  Mountain Waves  Volcanic Ashes






- Airport Elevation : 154 ft
- IATA code : SZZ


EPSC - Szczecin Goleniow

CURRENT METAR :
  • 081800Z 03004KT 360V070 CAVOK 30/16 Q1019

EXPIRED METARs :
  • 081730Z 01004KT 340V060 CAVOK 31/16 Q1019
  • 081700Z VRB02KT CAVOK 30/17 Q1019
  • 081630Z 02004KT 350V050 CAVOK 31/16 Q1019
  • 081600Z 02006KT 340V050 CAVOK 32/16 Q1019
  • 081530Z 34008KT 9999 FEW008 30/16 Q1019

TAF TAF EPSC
Valid from the 08 at 18:00 until the 09 at 18:00 UTC


081730Z 0818/0918 VRB03KT CAVOK
TEMPO 0911/0918 VRB15G25KT TSRA BKN045CB



MET'MAP, your aeronautical weather chart ! - Copyright ORBIFLY December 2007 - Disclaimer

ORBIFLY MET'MAP TEAM :

Programming & Development : Alexandra Zaïnal
Concept & original design : Baudouin d'Aumeries
Assistance for programming : Marc-Olivier Méhu
Technical & hardware support : Manuel Goepfert

Contact : metmap@orbifly.com




SOURCES & CREDITS :

   NOAA